Time;durP1;ratioP1;P1;durP2;ratioP2;P2;SDS_P1;SDS_P2;PMS_P1;PMS_P2;Temp;Humidity;BMP_temperature;BMP_pressure;BME280_temperature;BME280_humidity;BME280_pressure;Samples;Min_cycle;Max_cycle;Signal;HPM_P1;HPM_P2
2022/04/06 00:00:58;;;;;;;18.10;3.47;;;13.70;59.50;;;;;;7313055;19;20027;-85
2022/04/06 00:03:27;;;;;;;14.43;3.08;;;13.70;59.40;;;;;;7332176;19;20014;-84
2022/04/06 00:05:55;;;;;;;13.80;3.78;;;13.70;59.40;;;;;;7334657;19;20506;-84
2022/04/06 00:08:24;;;;;;;12.63;3.00;;;13.80;59.50;;;;;;7331472;19;20022;-85
2022/04/06 00:10:53;;;;;;;12.90;2.65;;;13.70;59.80;;;;;;7333928;19;20041;-84
2022/04/06 00:13:22;;;;;;;12.60;2.25;;;13.70;59.20;;;;;;7311502;19;20614;-84
2022/04/06 00:15:53;;;;;;;8.95;2.35;;;13.60;59.00;;;;;;7333067;19;20010;-84
2022/04/06 00:18:22;;;;;;;;;;;13.30;58.40;;;;;;7334278;19;20027;-84
2022/04/06 00:20:51;;;;;;;14.27;2.80;;;13.40;59.00;;;;;;7321430;19;19940;-84
2022/04/06 00:23:20;;;;;;;8.40;2.20;;;13.30;58.90;;;;;;7325493;19;20342;-84
2022/04/06 00:25:48;;;;;;;12.90;2.63;;;13.40;58.90;;;;;;7351796;19;20025;-85
2022/04/06 00:28:17;;;;;;;10.00;2.10;;;13.30;58.60;;;;;;7330895;19;20514;-84
2022/04/06 00:30:46;;;;;;;9.27;2.28;;;13.30;58.30;;;;;;7308560;19;20034;-84
2022/04/06 00:33:18;;;;;;;9.27;2.20;;;13.30;58.50;;;;;;7331880;19;20011;-85
2022/04/06 00:35:46;;;;;;;;;;;13.40;58.60;;;;;;7310987;19;20062;-84
2022/04/06 00:38:15;;;;;;;12.95;2.25;;;13.50;58.50;;;;;;7332325;19;19922;-84
2022/04/06 00:40:44;;;;;;;8.93;1.95;;;13.40;58.20;;;;;;7331638;19;20010;-85
2022/04/06 00:43:14;;;;;;;12.27;2.47;;;13.40;58.20;;;;;;7328952;19;20047;-85
2022/04/06 00:45:44;;;;;;;9.65;2.40;;;13.40;58.40;;;;;;7308731;19;20018;-84
2022/04/06 00:48:13;;;;;;;9.07;2.30;;;13.30;58.40;;;;;;7334398;19;20034;-85
2022/04/06 00:50:45;;;;;;;9.98;2.28;;;13.10;58.90;;;;;;7319748;19;20010;-84
2022/04/06 00:53:14;;;;;;;;;;;13.00;59.20;;;;;;7336351;19;20026;-84
2022/04/06 00:55:43;;;;;;;9.68;2.10;;;13.20;59.30;;;;;;7336154;19;19928;-84
2022/04/06 00:58:12;;;;;;;8.68;2.53;;;13.20;59.20;;;;;;7333283;19;20007;-84
2022/04/06 01:00:41;;;;;;;15.77;2.30;;;13.20;59.30;;;;;;7311854;19;20574;-83
2022/04/06 01:03:10;;;;;;;10.45;2.28;;;13.10;59.40;;;;;;7342722;19;20006;-83
2022/04/06 01:05:39;;;;;;;12.05;2.15;;;13.00;59.50;;;;;;7336681;19;20023;-84
2022/04/06 01:08:11;;;;;;;10.73;2.45;;;13.00;59.70;;;;;;7357624;19;20013;-84
2022/04/06 01:10:40;;;;;;;15.55;2.42;;;12.90;59.70;;;;;;7357141;19;20035;-84
2022/04/06 01:13:10;;;;;;;13.52;2.38;;;12.90;59.70;;;;;;7337466;19;20003;-84
2022/04/06 01:15:38;;;;;;;9.00;2.13;;;13.00;59.80;;;;;;7312905;19;20038;-84
2022/04/06 01:18:08;;;;;;;12.90;2.70;;;12.90;59.70;;;;;;7338999;19;20015;-84
2022/04/06 01:20:37;;;;;;;12.68;2.30;;;13.00;59.80;;;;;;7315861;19;20032;-84
2022/04/06 01:23:08;;;;;;;12.73;2.45;;;13.00;59.70;;;;;;7333843;19;20043;-85
2022/04/06 01:25:38;;;;;;;16.83;2.85;;;12.90;59.80;;;;;;7334069;19;20023;-85
2022/04/06 01:28:07;;;;;;;11.50;2.30;;;13.00;59.70;;;;;;7335010;19;20091;-85
2022/04/06 01:30:36;;;;;;;13.85;2.55;;;13.00;60.50;;;;;;7319416;19;20015;-85
2022/04/06 01:33:08;;;;;;;13.63;2.50;;;12.90;59.60;;;;;;7335100;19;20027;-85
2022/04/06 01:35:41;;;;;;;12.07;2.30;;;12.90;59.50;;;;;;7309783;19;20014;-85
2022/04/06 01:38:12;;;;;;;10.57;2.53;;;12.80;59.60;;;;;;7330830;19;20013;-85
2022/04/06 01:40:41;;;;;;;;;;;12.80;59.70;;;;;;7329987;19;20035;-85
2022/04/06 01:43:09;;;;;;;9.20;2.30;;;12.90;59.70;;;;;;7332669;19;19932;-85
2022/04/06 01:45:38;;;;;;;10.73;2.30;;;12.80;59.60;;;;;;7313830;19;20136;-85
2022/04/06 01:48:08;;;;;;;10.52;2.50;;;12.80;59.50;;;;;;7341892;19;20035;-85
2022/04/06 01:53:21;;;;;;;16.38;2.40;;;12.80;59.70;;;;;;7330921;19;20326;-85
2022/04/06 01:55:50;;;;;;;11.60;2.45;;;12.70;59.60;;;;;;7334153;19;20018;-84
2022/04/06 01:58:20;;;;;;;7.45;2.28;;;12.70;59.80;;;;;;7334573;19;20056;-85
2022/04/06 02:00:49;;;;;;;9.75;1.80;;;12.80;59.70;;;;;;7316860;19;20018;-84
2022/04/06 02:03:18;;;;;;;6.95;2.05;;;12.80;59.80;;;;;;7341450;19;20025;-84
2022/04/06 02:05:47;;;;;;;11.10;2.20;;;12.80;59.80;;;;;;7317672;19;20010;-85
2022/04/06 02:08:16;;;;;;;11.48;1.98;;;12.70;59.60;;;;;;7337551;19;20424;-84
2022/04/06 02:10:48;;;;;;;14.70;2.45;;;12.70;59.40;;;;;;7334936;19;20018;-84
2022/04/06 02:13:16;;;;;;;8.10;2.15;;;12.70;59.60;;;;;;7338017;19;20020;-84
2022/04/06 02:15:48;;;;;;;6.13;2.05;;;12.70;59.70;;;;;;7317839;19;20010;-84
2022/04/06 02:18:17;;;;;;;7.57;2.20;;;12.80;59.70;;;;;;7341353;19;20014;-83
2022/04/06 02:20:46;;;;;;;8.10;1.90;;;12.80;59.70;;;;;;7285550;19;20430;-85
2022/04/06 02:23:15;;;;;;;11.02;1.92;;;12.70;59.50;;;;;;7337176;19;20015;-84
2022/04/06 02:25:43;;;;;;;5.55;1.95;;;12.80;59.60;;;;;;7338366;19;20045;-83
2022/04/06 02:28:15;;;;;;;6.25;1.73;;;12.80;59.70;;;;;;7336814;19;20482;-84
2022/04/06 02:30:44;;;;;;;;;;;12.80;59.60;;;;;;7315421;19;20003;-83
2022/04/06 02:33:12;;;;;;;9.60;1.85;;;12.90;59.60;;;;;;7334612;19;19918;-84
2022/04/06 02:35:41;;;;;;;10.85;2.00;;;12.90;59.60;;;;;;7312594;19;20039;-84
2022/04/06 02:38:10;;;;;;;6.97;2.08;;;12.90;59.50;;;;;;7341737;19;20049;-83
2022/04/06 02:40:39;;;;;;;11.63;1.73;;;13.00;59.70;;;;;;7335549;19;20010;-83
2022/04/06 02:43:08;;;;;;;8.95;2.00;;;13.00;59.70;;;;;;7339568;19;20045;-84
2022/04/06 02:45:39;;;;;;;8.95;2.45;;;13.00;59.60;;;;;;7321393;19;20014;-84
2022/04/06 02:48:08;;;;;;;;;;;13.00;59.70;;;;;;7337595;19;20059;-84
2022/04/06 02:50:37;;;;;;;9.07;2.22;;;13.10;59.60;;;;;;7312741;19;20008;-83
2022/04/06 02:53:05;;;;;;;6.70;1.90;;;13.10;59.50;;;;;;7333928;19;20019;-84
2022/04/06 02:55:34;;;;;;;7.40;1.83;;;13.10;59.30;;;;;;7355443;19;20388;-83
2022/04/06 02:58:03;;;;;;;8.90;1.80;;;13.00;59.20;;;;;;7313546;19;20011;-84
2022/04/06 03:00:32;;;;;;;8.40;2.00;;;13.00;59.20;;;;;;7313740;19;20022;-84
2022/04/06 03:03:04;;;;;;;12.75;1.92;;;13.00;59.40;;;;;;7335935;19;20455;-84
2022/04/06 03:05:32;;;;;;;;;;;12.90;59.30;;;;;;7344727;19;20006;-84
2022/04/06 03:08:01;;;;;;;10.38;1.90;;;13.00;59.50;;;;;;7331958;19;19933;-85
2022/04/06 03:10:30;;;;;;;7.63;1.95;;;12.90;59.50;;;;;;7335140;19;20007;-85
2022/04/06 03:12:59;;;;;;;7.43;1.70;;;12.90;59.70;;;;;;7320919;19;20018;-85
2022/04/06 03:15:28;;;;;;;7.95;1.65;;;12.80;59.60;;;;;;7318012;19;20022;-84
2022/04/06 03:17:57;;;;;;;12.73;1.88;;;12.80;60.30;;;;;;7335168;19;20031;-85
2022/04/06 03:20:29;;;;;;;8.55;1.30;;;12.90;59.70;;;;;;7334836;19;20038;-85
2022/04/06 03:22:58;;;;;;;7.20;1.70;;;12.80;59.90;;;;;;7334316;19;20027;-85
2022/04/06 03:25:27;;;;;;;4.40;1.38;;;12.80;59.80;;;;;;7334648;19;20477;-85
2022/04/06 03:27:56;;;;;;;7.75;1.40;;;12.80;60.00;;;;;;7312463;19;20042;-85
2022/04/06 03:30:24;;;;;;;5.38;1.42;;;12.80;59.90;;;;;;7326818;19;20132;-85
2022/04/06 03:32:53;;;;;;;5.32;1.33;;;12.90;60.20;;;;;;7333691;19;20007;-85
2022/04/06 03:35:22;;;;;;;4.40;1.60;;;12.90;60.10;;;;;;7334504;19;20469;-85
2022/04/06 03:37:54;;;;;;;6.85;1.60;;;13.00;60.00;;;;;;7332651;19;20018;-85
2022/04/06 03:40:23;;;;;;;7.80;1.75;;;12.90;59.70;;;;;;7337318;19;20032;-86
2022/04/06 03:42:52;;;;;;;5.15;1.50;;;13.00;59.80;;;;;;7320793;19;20623;-86
2022/04/06 03:45:21;;;;;;;4.38;1.20;;;12.90;59.80;;;;;;7334903;19;20617;-84
2022/04/06 03:47:50;;;;;;;3.88;1.25;;;12.90;59.90;;;;;;7312907;19;20007;-85
2022/04/06 03:50:19;;;;;;;9.05;1.83;;;12.90;59.70;;;;;;7332599;19;20074;-85
2022/04/06 03:52:48;;;;;;;11.27;2.85;;;12.80;59.90;;;;;;7335194;19;20034;-85
2022/04/06 03:55:22;;;;;;;7.53;2.00;;;12.80;60.20;;;;;;7333434;19;20031;-84
2022/04/06 03:57:51;;;;;;;10.23;2.35;;;12.80;60.20;;;;;;7313185;19;20414;-84
2022/04/06 04:00:21;;;;;;;11.15;2.47;;;12.80;60.20;;;;;;7335269;19;20014;-84
2022/04/06 04:02:50;;;;;;;8.60;2.15;;;12.70;60.40;;;;;;7311632;19;20023;-84
2022/04/06 04:05:19;;;;;;;11.65;2.03;;;12.70;60.80;;;;;;7335141;19;20018;-85
2022/04/06 04:07:51;;;;;;;9.10;2.33;;;12.70;60.40;;;;;;7333966;19;20031;-84
2022/04/06 04:10:23;;;;;;;11.15;2.28;;;12.70;60.40;;;;;;7342392;19;20015;-84
2022/04/06 04:12:51;;;;;;;12.25;2.58;;;12.60;60.40;;;;;;7317437;19;20011;-84
2022/04/06 04:15:20;;;;;;;8.77;2.38;;;12.70;60.90;;;;;;7332117;19;20027;-85
2022/04/06 04:17:49;;;;;;;24.13;4.28;;;12.70;60.90;;;;;;7312034;19;20656;-84
2022/04/06 04:20:18;;;;;;;10.90;3.17;;;12.70;60.90;;;;;;7334188;19;20018;-84
2022/04/06 04:22:47;;;;;;;12.38;3.55;;;12.70;60.90;;;;;;7338137;19;20014;-84
2022/04/06 04:25:16;;;;;;;12.05;2.70;;;12.80;61.10;;;;;;7353181;19;20027;-85
2022/04/06 04:27:47;;;;;;;12.48;3.13;;;12.80;60.90;;;;;;7336178;19;20011;-86
2022/04/06 04:30:16;;;;;;;11.27;3.10;;;12.80;61.20;;;;;;7358779;19;20003;-86
2022/04/06 04:32:45;;;;;;;12.93;2.80;;;12.80;61.30;;;;;;7338295;19;20021;-86
2022/04/06 04:35:14;;;;;;;7.95;2.60;;;12.80;60.90;;;;;;7360103;19;20010;-84
2022/04/06 04:37:43;;;;;;;9.45;2.65;;;12.80;60.60;;;;;;7358014;19;20014;-85
2022/04/06 04:40:12;;;;;;;12.63;3.10;;;12.80;60.70;;;;;;7345990;19;20010;-84
2022/04/06 04:42:41;;;;;;;10.07;2.33;;;12.90;60.70;;;;;;7314581;19;20014;-84
2022/04/06 04:45:13;;;;;;;9.75;2.88;;;12.80;60.60;;;;;;7339586;19;20018;-86
2022/04/06 04:47:42;;;;;;;9.05;3.22;;;12.80;60.70;;;;;;7316142;19;20010;-85
2022/04/06 04:50:11;;;;;;;8.73;2.70;;;12.80;60.80;;;;;;7337747;19;20032;-83
2022/04/06 04:52:41;;;;;;;12.43;2.78;;;12.80;60.80;;;;;;7359923;19;20007;-83
2022/04/06 04:55:11;;;;;;;8.45;2.83;;;12.90;61.00;;;;;;7358922;19;20003;-84
2022/04/06 04:57:39;;;;;;;11.75;3.47;;;12.90;61.00;;;;;;7324371;19;20478;-84
2022/04/06 05:00:10;;;;;;;13.85;3.08;;;12.90;61.00;;;;;;7340590;19;20014;-84
2022/04/06 05:02:42;;;;;;;10.23;3.17;;;12.90;60.80;;;;;;7313649;19;21698;-84
2022/04/06 05:05:22;;;;;;;;;;;13.00;61.10;;;;;;7334921;19;20011;-84
2022/04/06 05:07:53;;;;;;;10.25;3.50;;;13.00;61.10;;;;;;7339411;19;19919;-83
2022/04/06 05:10:22;;;;;;;8.95;3.50;;;13.00;61.00;;;;;;7338443;19;20006;-83
2022/04/06 05:12:52;;;;;;;15.15;4.35;;;13.00;61.20;;;;;;7310546;19;21008;-85
2022/04/06 05:15:22;;;;;;;15.60;4.78;;;13.00;61.10;;;;;;7332901;19;20035;-83
2022/04/06 05:17:53;;;;;;;13.50;4.50;;;12.90;61.10;;;;;;7309125;19;20051;-83
2022/04/06 05:20:22;;;;;;;12.95;4.30;;;12.90;61.60;;;;;;7329580;19;20037;-84
2022/04/06 05:22:51;;;;;;;14.43;3.47;;;13.00;61.50;;;;;;7329383;19;20033;-83
2022/04/06 05:25:20;;;;;;;17.35;3.60;;;13.00;61.80;;;;;;7331435;19;20044;-83
2022/04/06 05:27:50;;;;;;;13.15;3.75;;;12.90;61.10;;;;;;7310928;19;20011;-83
2022/04/06 05:30:20;;;;;;;13.55;3.70;;;12.90;61.30;;;;;;7334103;19;20034;-82
2022/04/06 05:32:55;;;;;;;14.13;3.80;;;12.90;61.10;;;;;;7311862;19;20020;-84
2022/04/06 05:35:26;;;;;;;13.38;3.00;;;12.60;61.60;;;;;;7335496;19;20022;-83
2022/04/06 05:37:57;;;;;;;13.27;3.50;;;12.60;61.90;;;;;;7348425;19;20015;-84
2022/04/06 05:40:27;;;;;;;10.65;3.97;;;12.60;62.00;;;;;;7323341;19;20027;-84
2022/04/06 05:42:56;;;;;;;15.38;3.35;;;12.60;61.90;;;;;;7339302;19;20134;-84
2022/04/06 05:45:25;;;;;;;12.73;3.47;;;12.50;62.00;;;;;;7316425;19;20477;-84
2022/04/06 05:47:57;;;;;;;13.63;3.50;;;12.50;62.30;;;;;;7344468;19;20115;-84
2022/04/06 05:50:26;;;;;;;12.65;3.50;;;12.50;62.40;;;;;;7337319;19;20424;-85
2022/04/06 05:52:55;;;;;;;9.50;3.00;;;12.40;62.60;;;;;;7337654;19;20019;-85
2022/04/06 05:55:24;;;;;;;14.20;3.60;;;12.50;62.60;;;;;;7315195;19;20014;-84
2022/04/06 05:57:53;;;;;;;16.13;3.47;;;12.50;62.40;;;;;;7338541;19;20126;-85
2022/04/06 06:00:22;;;;;;;15.45;3.83;;;12.50;62.30;;;;;;7314342;19;20038;-85
2022/04/06 06:02:51;;;;;;;13.82;2.92;;;12.60;62.20;;;;;;7337333;19;20032;-84
2022/04/06 06:05:23;;;;;;;11.25;3.00;;;12.60;62.90;;;;;;7337947;19;20035;-84
2022/04/06 06:07:52;;;;;;;10.25;3.05;;;12.50;62.10;;;;;;7343928;19;20019;-84
2022/04/06 06:10:24;;;;;;;21.95;3.22;;;12.50;62.40;;;;;;7336283;19;20022;-84
2022/04/06 06:12:58;;;;;;;13.25;3.40;;;12.60;62.50;;;;;;7312717;19;20015;-84
2022/04/06 06:18:09;;;;;;;18.45;3.35;;;12.60;62.30;;;;;;7314526;19;20054;-83
2022/04/06 06:20:40;;;;;;;13.23;2.88;;;12.40;62.50;;;;;;7310865;19;20010;-83
2022/04/06 06:23:09;;;;;;;;;;;12.50;62.70;;;;;;7335059;19;20022;-83
2022/04/06 06:25:39;;;;;;;12.07;3.13;;;12.60;62.60;;;;;;7337273;19;20450;-84
2022/04/06 06:28:08;;;;;;;14.68;3.38;;;12.70;62.40;;;;;;7341062;19;20081;-84
2022/04/06 06:30:37;;;;;;;11.68;2.53;;;12.70;62.50;;;;;;7321944;19;20011;-84
2022/04/06 06:33:07;;;;;;;14.82;3.13;;;12.80;62.50;;;;;;7338906;19;20010;-84
2022/04/06 06:35:36;;;;;;;14.35;3.33;;;12.80;62.30;;;;;;7315332;19;20019;-84
2022/04/06 06:38:08;;;;;;;12.48;2.92;;;12.90;62.20;;;;;;7337787;19;20696;-84
2022/04/06 06:40:37;;;;;;;10.52;2.60;;;12.90;62.00;;;;;;7338712;19;20014;-84
2022/04/06 06:43:06;;;;;;;13.02;2.95;;;12.80;61.70;;;;;;7336429;19;20022;-84
2022/04/06 06:45:35;;;;;;;11.90;2.55;;;12.90;61.80;;;;;;7313918;19;20002;-83
2022/04/06 06:48:04;;;;;;;12.13;2.47;;;12.90;61.90;;;;;;7336453;19;20019;-83
2022/04/06 06:50:33;;;;;;;11.20;2.42;;;12.90;61.80;;;;;;7311409;19;20022;-84
2022/04/06 06:53:01;;;;;;;15.52;2.80;;;13.00;61.80;;;;;;7353927;19;20047;-83
2022/04/06 06:55:43;;;;;;;9.10;2.70;;;12.80;61.80;;;;;;7357193;19;20018;-82
2022/04/06 06:58:12;;;;;;;;;;;12.80;61.80;;;;;;7328224;19;20014;-83
2022/04/06 07:00:43;;;;;;;9.40;2.72;;;13.00;62.00;;;;;;7309388;19;19922;-83
2022/04/06 07:03:12;;;;;;;11.60;2.63;;;13.00;61.80;;;;;;7332741;19;20025;-82
2022/04/06 07:05:41;;;;;;;10.68;2.30;;;13.00;61.60;;;;;;7313355;19;20007;-82
2022/04/06 07:08:10;;;;;;;11.05;2.67;;;13.00;62.70;;;;;;7337315;19;20082;-85
2022/04/06 07:10:46;;;;;;;16.45;2.72;;;13.10;61.50;;;;;;7320663;19;20036;-83
2022/04/06 07:13:16;;;;;;;9.20;2.40;;;13.10;61.40;;;;;;7327976;19;20019;-83
2022/04/06 07:15:45;;;;;;;10.60;2.70;;;13.20;61.20;;;;;;7309764;19;20010;-83
2022/04/06 07:18:17;;;;;;;6.40;2.28;;;13.10;61.20;;;;;;7332130;19;20010;-83
2022/04/06 07:20:46;;;;;;;9.48;2.25;;;13.20;61.60;;;;;;7309803;19;20035;-83
2022/04/06 07:23:15;;;;;;;12.50;2.45;;;13.10;61.10;;;;;;7331479;19;20034;-85
2022/04/06 07:25:47;;;;;;;14.35;2.47;;;13.20;61.20;;;;;;7332426;19;20031;-82
2022/04/06 07:28:15;;;;;;;8.70;2.60;;;13.20;61.20;;;;;;7332415;19;20022;-84
2022/04/06 07:30:44;;;;;;;6.35;2.22;;;13.20;61.70;;;;;;7307514;19;20018;-83
2022/04/06 07:33:14;;;;;;;10.35;2.38;;;13.20;61.10;;;;;;7334570;19;20039;-83
2022/04/06 07:35:43;;;;;;;12.77;2.60;;;13.00;61.10;;;;;;7310252;19;20065;-84
2022/04/06 07:38:12;;;;;;;8.63;2.78;;;13.10;61.30;;;;;;7340468;19;20007;-83
2022/04/06 07:40:42;;;;;;;9.00;2.38;;;13.00;61.20;;;;;;7336678;19;20029;-84
2022/04/06 07:43:13;;;;;;;12.48;2.35;;;13.00;61.20;;;;;;7333974;19;20776;-83
2022/04/06 07:45:42;;;;;;;;;;;13.00;60.90;;;;;;7312626;19;20052;-84
2022/04/06 07:48:11;;;;;;;8.88;2.40;;;13.00;61.90;;;;;;7334117;19;19985;-84
2022/04/06 07:50:40;;;;;;;8.75;2.55;;;13.00;61.20;;;;;;7312635;19;20077;-86
2022/04/06 07:53:11;;;;;;;10.88;2.35;;;13.10;61.10;;;;;;7335145;19;20014;-85
2022/04/06 07:55:40;;;;;;;7.80;2.40;;;13.20;61.10;;;;;;7332163;19;20048;-83
2022/04/06 07:58:08;;;;;;;8.68;2.75;;;13.10;60.90;;;;;;7330092;19;20118;-82
2022/04/06 08:00:40;;;;;;;6.40;1.80;;;13.10;61.00;;;;;;7311440;19;20026;-83
2022/04/06 08:03:09;;;;;;;6.90;2.53;;;13.20;60.90;;;;;;7334386;19;20014;-84
2022/04/06 08:05:38;;;;;;;7.78;2.25;;;13.10;60.70;;;;;;7315773;19;20017;-82
2022/04/06 08:08:07;;;;;;;10.35;2.40;;;13.20;60.90;;;;;;7342046;19;20582;-83
2022/04/06 08:10:36;;;;;;;11.85;3.15;;;13.20;60.90;;;;;;7343717;19;20022;-83
2022/04/06 08:13:05;;;;;;;5.65;2.40;;;13.30;60.80;;;;;;7334609;19;20018;-83
2022/04/06 08:15:34;;;;;;;6.35;2.70;;;13.30;60.70;;;;;;7339363;19;20026;-83
2022/04/06 08:18:06;;;;;;;8.27;2.83;;;13.40;60.70;;;;;;7337583;19;20014;-85
2022/04/06 08:20:35;;;;;;;12.40;2.90;;;13.20;60.70;;;;;;7317843;19;20039;-84
2022/04/06 08:23:04;;;;;;;12.43;2.97;;;13.20;61.20;;;;;;7336909;19;20022;-84
2022/04/06 08:25:33;;;;;;;7.82;3.42;;;13.10;61.30;;;;;;7337437;19;20077;-82
2022/04/06 08:28:02;;;;;;;12.18;3.53;;;13.10;61.50;;;;;;7339464;19;20720;-83
2022/04/06 08:30:30;;;;;;;9.52;3.03;;;13.10;61.80;;;;;;7309810;19;20026;-85
2022/04/06 08:33:00;;;;;;;11.38;3.33;;;13.20;61.90;;;;;;7327587;19;20078;-80
2022/04/06 08:35:32;;;;;;;11.00;3.25;;;13.30;61.50;;;;;;7332908;19;20018;-83
2022/04/06 08:38:02;;;;;;;10.30;3.33;;;13.40;61.30;;;;;;7332481;19;20040;-82
2022/04/06 08:40:32;;;;;;;12.90;3.10;;;13.30;61.20;;;;;;7312016;19;20039;-82
2022/04/06 08:43:01;;;;;;;9.52;3.20;;;13.40;61.40;;;;;;7330937;19;20014;-81
2022/04/06 08:45:30;;;;;;;10.80;3.30;;;13.40;61.30;;;;;;7309255;19;20085;-83
2022/04/06 08:48:01;;;;;;;15.70;3.28;;;13.50;61.30;;;;;;7341395;19;20042;-82
2022/04/06 08:50:34;;;;;;;11.02;2.97;;;13.50;61.20;;;;;;7356899;19;20035;-81
2022/04/06 08:53:05;;;;;;;16.63;3.60;;;13.60;61.10;;;;;;7336383;19;20062;-82
2022/04/06 08:55:35;;;;;;;14.48;3.30;;;13.50;60.80;;;;;;7314459;19;20027;-82
2022/04/06 08:58:05;;;;;;;14.90;3.88;;;13.40;61.30;;;;;;7336570;19;20014;-82
2022/04/06 09:00:34;;;;;;;12.73;3.53;;;13.50;61.50;;;;;;7331985;19;20014;-82
2022/04/06 09:03:03;;;;;;;18.83;3.45;;;13.30;61.80;;;;;;7310992;19;20011;-82
2022/04/06 09:05:35;;;;;;;10.10;3.00;;;13.30;61.80;;;;;;7332202;19;20038;-85
2022/04/06 09:08:05;;;;;;;10.63;3.15;;;13.50;61.70;;;;;;7312831;19;20022;-81
2022/04/06 09:10:36;;;;;;;14.38;3.03;;;13.50;61.30;;;;;;7346010;19;20015;-84
2022/04/06 09:13:13;;;;;;;9.57;3.40;;;13.40;61.30;;;;;;7339882;19;20018;-84
2022/04/06 09:15:43;;;;;;;12.93;3.38;;;13.50;61.40;;;;;;7315756;19;20723;-84
2022/04/06 09:18:12;;;;;;;10.52;3.60;;;13.60;61.30;;;;;;7334478;19;20018;-84
2022/04/06 09:20:44;;;;;;;10.68;3.22;;;13.50;61.30;;;;;;7317838;19;20018;-81
2022/04/06 09:23:14;;;;;;;;;;;13.70;61.30;;;;;;7335902;19;20113;-80
2022/04/06 09:25:42;;;;;;;11.57;3.17;;;13.70;60.80;;;;;;7335017;19;19995;-84
2022/04/06 09:28:14;;;;;;;11.35;3.17;;;13.70;60.90;;;;;;7337502;19;20014;-82
2022/04/06 09:30:46;;;;;;;9.50;2.63;;;13.80;60.60;;;;;;7317731;19;20022;-84
2022/04/06 09:33:16;;;;;;;7.18;2.63;;;13.80;60.60;;;;;;7341093;19;20014;-83
2022/04/06 09:35:48;;;;;;;8.52;3.10;;;13.70;60.40;;;;;;7315406;19;20450;-85
2022/04/06 09:38:22;;;;;;;11.50;3.00;;;13.80;60.40;;;;;;7338140;19;20018;-84
2022/04/06 09:40:51;;;;;;;11.63;2.75;;;13.90;60.30;;;;;;7344562;19;20019;-84
2022/04/06 09:43:27;;;;;;;9.80;2.67;;;14.00;60.10;;;;;;7337772;19;20158;-84
2022/04/06 09:48:56;;;;;;;7.97;2.33;;;14.00;59.60;;;;;;7316056;19;20010;-84
2022/04/06 09:51:27;;;;;;;12.57;3.03;;;13.80;59.60;;;;;;7336963;19;20014;-84
2022/04/06 09:53:57;;;;;;;8.13;2.42;;;13.60;60.10;;;;;;7338190;19;20032;-84
2022/04/06 09:56:26;;;;;;;10.02;2.70;;;13.60;60.50;;;;;;7335797;19;20010;-84
2022/04/06 09:58:55;;;;;;;10.32;2.65;;;13.50;60.50;;;;;;7338625;19;20043;-83
2022/04/06 10:01:24;;;;;;;9.77;2.50;;;13.60;61.30;;;;;;7316944;19;20028;-83
2022/04/06 10:03:57;;;;;;;7.57;2.90;;;13.70;60.80;;;;;;7338113;19;20474;-83
2022/04/06 10:06:28;;;;;;;7.47;2.20;;;13.90;60.50;;;;;;7332357;19;20027;-84
2022/04/06 10:08:57;;;;;;;9.48;2.38;;;13.90;59.30;;;;;;7344152;19;20003;-84
2022/04/06 10:11:27;;;;;;;11.60;2.80;;;14.10;59.30;;;;;;7344438;19;20014;-84
2022/04/06 10:13:56;;;;;;;9.68;2.30;;;14.00;59.00;;;;;;7340138;19;20022;-83
2022/04/06 10:16:26;;;;;;;8.98;2.63;;;14.00;59.20;;;;;;7338532;19;20011;-84
2022/04/06 10:18:56;;;;;;;9.10;2.17;;;14.00;58.90;;;;;;7313569;19;20006;-83
2022/04/06 10:21:44;;;;;;;9.85;2.80;;;14.10;59.10;;;;;;7333215;19;20018;-84
2022/04/06 10:24:24;;;;;;;10.30;3.20;;;14.00;59.00;;;;;;7315465;19;20471;-84
2022/04/06 10:27:11;;;;;;;8.60;2.97;;;14.10;59.40;;;;;;7337175;19;20406;-84
2022/04/06 10:30:10;;;;;;;8.32;2.70;;;14.10;58.80;;;;;;7314694;19;20403;-84
2022/04/06 10:32:40;;;;;;;12.57;2.75;;;14.10;59.10;;;;;;7312877;19;20010;-83
2022/04/06 10:35:26;;;;;;;12.27;3.13;;;14.20;59.10;;;;;;7334643;19;20101;-83
2022/04/06 10:38:16;;;;;;;9.40;3.17;;;14.10;58.80;;;;;;7334052;19;20062;-80
2022/04/06 10:41:11;;;;;;;13.02;2.78;;;14.10;59.20;;;;;;7315715;19;20448;-81
2022/04/06 10:43:53;;;;;;;67.93;34.15;;;14.20;59.30;;;;;;7312431;19;20031;-83
2022/04/06 10:46:38;;;;;;;13.50;3.42;;;14.20;59.00;;;;;;7333228;19;20007;-79
2022/04/06 10:49:17;;;;;;;10.43;3.50;;;14.20;59.00;;;;;;7312359;19;20442;-84
2022/04/06 10:51:50;;;;;;;13.15;3.42;;;14.20;59.00;;;;;;7312304;19;20778;-86
2022/04/06 10:54:46;;;;;;;10.55;2.95;;;14.20;59.70;;;;;;7336789;19;20043;-84
2022/04/06 10:57:15;;;;;;;9.75;2.58;;;14.30;59.80;;;;;;7315587;19;20018;-83
2022/04/06 10:59:44;;;;;;;13.38;3.85;;;14.50;59.50;;;;;;7316996;19;20015;-82
2022/04/06 11:02:25;;;;;;;14.00;4.13;;;14.70;58.90;;;;;;7337681;19;20035;-85
2022/04/06 11:04:54;;;;;;;10.23;3.25;;;14.60;58.80;;;;;;7344356;19;20026;-89
2022/04/06 11:10:31;;;;;;;10.65;3.63;;;14.60;58.80;;;;;;7319817;19;20015;-83
2022/04/06 11:13:02;;;;;;;7.30;3.38;;;14.60;58.90;;;;;;7344995;19;20014;-84
2022/04/06 11:15:41;;;;;;;10.82;3.00;;;14.60;58.90;;;;;;7338701;19;20082;-81
2022/04/06 11:18:40;;;;;;;11.73;3.45;;;14.80;58.80;;;;;;7311773;19;20018;-80
2022/04/06 11:21:09;;;;;;;10.88;3.90;;;14.70;58.40;;;;;;7312055;19;20014;-82
2022/04/06 11:23:37;;;;;;;11.00;3.40;;;14.90;58.40;;;;;;7316476;19;20022;-84
2022/04/06 11:26:09;;;;;;;9.57;3.58;;;14.80;58.40;;;;;;7340464;19;20517;-83
2022/04/06 11:28:37;;;;;;;;;;;14.80;57.80;;;;;;7333398;19;20014;-84
2022/04/06 11:31:07;;;;;;;5.78;2.78;;;14.80;58.20;;;;;;7337020;19;19915;-84
2022/04/06 11:33:42;;;;;;;12.07;3.10;;;14.40;58.50;;;;;;7312320;19;20412;-83
2022/04/06 11:36:18;;;;;;;7.72;2.95;;;14.70;59.00;;;;;;7332601;19;20052;-83
2022/04/06 11:38:51;;;;;;;13.35;3.67;;;14.90;58.60;;;;;;7311205;19;20018;-83
2022/04/06 11:41:23;;;;;;;8.70;3.40;;;14.90;58.00;;;;;;7343838;19;20014;-83
2022/04/06 11:43:53;;;;;;;7.28;3.05;;;14.90;57.70;;;;;;7340766;19;20043;-83
2022/04/06 11:46:22;;;;;;;9.68;3.20;;;15.00;58.10;;;;;;7332703;19;20015;-84
2022/04/06 11:48:51;;;;;;;10.50;3.50;;;14.90;58.30;;;;;;7311510;19;20006;-83
2022/04/06 11:51:20;;;;;;;9.50;3.05;;;15.10;58.70;;;;;;7332181;19;20018;-82
2022/04/06 11:53:48;;;;;;;6.97;2.95;;;15.10;57.60;;;;;;7310419;19;20443;-83
2022/04/06 11:56:26;;;;;;;10.23;3.00;;;15.30;57.40;;;;;;7331977;19;20019;-82
2022/04/06 11:58:57;;;;;;;9.77;3.63;;;15.30;57.50;;;;;;7332974;19;20094;-82
2022/04/06 12:01:28;;;;;;;13.20;3.08;;;15.40;57.20;;;;;;7333933;19;20018;-85
2022/04/06 12:03:58;;;;;;;44.45;24.85;;;15.50;57.20;;;;;;7310673;19;20042;-81
2022/04/06 12:06:36;;;;;;;14.13;3.53;;;15.60;57.10;;;;;;7334345;19;20062;-84
2022/04/06 12:09:06;;;;;;;10.10;3.70;;;15.30;57.30;;;;;;7316599;19;20015;-87
2022/04/06 12:11:38;;;;;;;13.48;3.85;;;15.30;57.10;;;;;;7317738;19;20015;-86
2022/04/06 12:14:10;;;;;;;13.57;4.20;;;15.10;57.30;;;;;;7338102;19;20043;-84
2022/04/06 12:16:40;;;;;;;9.10;3.38;;;15.20;57.40;;;;;;7341040;19;20018;-87
2022/04/06 12:19:13;;;;;;;12.90;3.17;;;15.10;57.40;;;;;;7337205;19;20086;-86
2022/04/06 12:21:46;;;;;;;7.38;3.28;;;15.10;57.40;;;;;;7313247;19;20025;-89
2022/04/06 12:24:17;;;;;;;9.52;3.45;;;15.10;57.40;;;;;;7334439;19;20438;-86
2022/04/06 12:26:51;;;;;;;13.65;3.65;;;15.20;57.60;;;;;;7315346;19;20029;-86
2022/04/06 12:29:20;;;;;;;9.77;3.55;;;15.10;57.50;;;;;;7332700;19;20021;-86
2022/04/06 12:31:49;;;;;;;10.73;3.97;;;15.10;58.40;;;;;;7328087;19;20014;-87
2022/04/06 12:34:46;;;;;;;11.63;3.53;;;15.10;57.90;;;;;;7333854;19;20023;-85
2022/04/06 12:39:58;;;;;;;11.52;3.42;;;15.10;57.50;;;;;;7305625;19;20014;-83
2022/04/06 12:42:39;;;;;;;9.77;3.80;;;14.80;57.60;;;;;;7312776;19;20042;-83
2022/04/06 12:45:10;;;;;;;7.72;3.53;;;14.70;58.00;;;;;;7338048;19;20039;-82
2022/04/06 12:47:38;;;;;;;14.80;3.97;;;14.80;58.20;;;;;;7319146;19;20014;-84
2022/04/06 12:50:19;;;;;;;9.25;3.45;;;14.80;57.90;;;;;;7354532;19;20015;-83
2022/04/06 12:53:10;;;;;;;7.13;3.33;;;14.90;58.00;;;;;;7318096;19;20021;-80
2022/04/06 12:55:42;;;;;;;11.50;3.50;;;14.80;58.10;;;;;;7324706;19;20029;-89
2022/04/06 12:58:23;;;;;;;10.98;3.20;;;14.70;58.70;;;;;;7337207;19;20025;-86
2022/04/06 13:00:59;;;;;;;8.13;4.00;;;14.70;58.70;;;;;;7318243;19;20950;-84
2022/04/06 13:03:28;;;;;;;12.00;3.80;;;14.60;58.70;;;;;;7310731;19;20023;-83
2022/04/06 13:05:57;;;;;;;13.13;3.75;;;14.50;58.50;;;;;;7330399;19;20040;-87
2022/04/06 13:08:26;;;;;;;11.63;3.55;;;14.50;58.80;;;;;;7313951;19;20014;-86
2022/04/06 13:10:55;;;;;;;11.73;4.65;;;14.70;58.70;;;;;;7359227;19;20110;-86
2022/04/06 13:13:26;;;;;;;12.85;3.78;;;14.80;58.10;;;;;;7314036;19;20011;-83
2022/04/06 13:15:55;;;;;;;13.93;3.47;;;14.90;57.90;;;;;;7329100;19;20015;-88
2022/04/06 13:18:24;;;;;;;9.43;3.45;;;14.90;57.60;;;;;;7334578;19;20080;-88